Time;durP1;ratioP1;P1;durP2;ratioP2;P2;SDS_P1;SDS_P2;PMS_P1;PMS_P2;Temp;Humidity;BMP_temperature;BMP_pressure;BME280_temperature;BME280_humidity;BME280_pressure;Samples;Min_cycle;Max_cycle;Signal;HPM_P1;HPM_P2
2021/08/18 00:00:27;;;;;;;1.10;0.87;;;13.80;99.10;;;12.32;100.00;100332.19;2645451;30;95967;-84
2021/08/18 00:03:41;;;;;;;1.63;1.20;;;13.70;99.10;;;12.28;100.00;100338.91;2642060;30;122372;-83
2021/08/18 00:06:57;;;;;;;3.27;1.43;;;13.70;99.30;;;12.17;100.00;100342.75;2660280;30;117219;-83
2021/08/18 00:10:11;;;;;;;1.30;1.03;;;13.60;99.40;;;12.13;100.00;100352.13;2636063;30;101827;-84
2021/08/18 00:13:25;;;;;;;3.50;1.50;;;13.50;99.70;;;12.02;100.00;100355.13;2674028;30;69452;-82
2021/08/18 00:16:03;;;;;;;1.63;1.30;;;13.50;99.80;;;12.02;100.00;100357.81;2645358;30;90852;-81
2021/08/18 00:18:33;;;;;;;2.47;1.20;;;13.40;99.90;;;11.97;100.00;100361.00;2632222;38;100650;-82
2021/08/18 00:21:02;;;;;;;1.93;1.27;;;13.40;99.90;;;11.95;100.00;100360.34;2632514;30;76546;-84
2021/08/18 00:26:48;;;;;;;2.50;1.30;;;13.30;99.90;;;11.83;100.00;100364.34;2653789;30;87196;-82
2021/08/18 00:30:01;;;;;;;1.37;1.10;;;13.30;99.90;;;11.77;100.00;100368.50;2640211;38;34780;-85
2021/08/18 00:33:15;;;;;;;2.43;1.43;;;13.20;99.90;;;11.70;100.00;100383.53;2648896;38;22884;-82
2021/08/18 00:36:28;;;;;;;2.53;1.60;;;13.10;99.90;;;11.58;100.00;100384.00;2643354;30;64865;-83
2021/08/18 00:39:41;;;;;;;1.93;1.30;;;13.10;99.90;;;11.55;100.00;100387.00;2652193;30;110845;-83
2021/08/18 00:43:06;;;;;;;2.23;1.53;;;13.00;99.90;;;11.53;100.00;100403.22;2652807;30;127954;-83
2021/08/18 00:45:44;;;;;;;3.10;1.47;;;12.90;99.90;;;11.45;100.00;100409.41;2614701;30;132629;-82
2021/08/18 00:48:13;;;;;;;2.00;1.53;;;12.80;99.90;;;11.33;100.00;100417.88;2602816;30;134581;-85
2021/08/18 00:50:42;;;;;;;1.50;1.37;;;12.70;99.90;;;11.31;100.00;100426.06;2630208;30;132536;-81
2021/08/18 00:53:14;;;;;;;2.97;1.70;;;12.70;99.90;;;11.28;100.00;100426.38;2596465;30;132829;-81
2021/08/18 00:55:44;;;;;;;4.57;1.63;;;11.80;99.90;;;11.27;100.00;100434.56;2634680;30;132989;-85
2021/08/18 00:58:16;;;;;;;2.07;1.60;;;12.60;99.90;;;11.24;100.00;100434.91;2655620;30;133426;-84
2021/08/18 01:00:44;;;;;;;1.90;1.50;;;12.50;99.90;;;11.24;100.00;100441.13;2609535;30;133794;-84
2021/08/18 01:03:13;;;;;;;3.40;1.60;;;12.50;99.90;;;11.26;100.00;100444.44;2599303;30;134669;-82
2021/08/18 01:05:42;;;;;;;2.63;1.57;;;12.50;99.90;;;11.22;100.00;100445.78;2632702;30;133534;-84
2021/08/18 01:08:11;;;;;;;3.90;1.57;;;12.50;99.90;;;11.24;100.00;100453.66;2683327;30;136048;-82
2021/08/18 01:10:40;;;;;;;4.70;1.93;;;12.50;99.90;;;11.23;100.00;100462.69;2599369;30;136327;-82
2021/08/18 01:13:10;;;;;;;2.10;1.53;;;12.50;99.90;;;11.25;100.00;100461.53;2585294;30;133046;-82
2021/08/18 01:16:17;;;;;;;1.87;1.37;;;12.50;99.90;;;11.24;100.00;100459.88;2625131;30;135830;-83
2021/08/18 01:19:31;;;;;;;2.73;1.67;;;12.50;99.90;;;11.14;100.00;100459.09;2608391;30;135706;-81
2021/08/18 01:22:44;;;;;;;2.23;1.93;;;12.50;99.90;;;11.06;100.00;100459.06;2579250;30;134507;-81
2021/08/18 01:25:57;;;;;;;3.67;1.47;;;12.90;99.90;;;11.09;100.00;100474.81;2623106;30;133389;-82
2021/08/18 01:29:14;;;;;;;2.60;1.40;;;12.40;99.90;;;11.02;100.00;100485.31;2598426;30;133195;-81
2021/08/18 01:32:28;;;;;;;4.23;1.77;;;12.30;99.90;;;11.01;100.00;100490.81;2595121;30;133084;-83
2021/08/18 01:35:55;;;;;;;2.70;1.30;;;12.30;99.90;;;10.94;100.00;100495.97;2582182;30;132274;-82
2021/08/18 01:39:11;;;;;;;3.27;1.80;;;13.10;99.90;;;10.90;100.00;100504.44;2587509;30;132575;-82
2021/08/18 01:42:24;;;;;;;2.63;1.60;;;12.20;99.90;;;10.88;100.00;100506.47;2588457;30;133252;-84
2021/08/18 01:45:44;;;;;;;1.40;1.30;;;12.10;99.90;;;10.85;100.00;100514.81;2587531;30;133093;-82
2021/08/18 01:48:58;;;;;;;3.00;1.90;;;12.10;99.90;;;10.89;100.00;100508.97;2623128;30;134332;-81
2021/08/18 01:52:12;;;;;;;2.97;1.60;;;12.10;99.90;;;10.82;100.00;100505.22;2588498;30;132796;-82
2021/08/18 01:55:26;;;;;;;3.07;2.10;;;12.10;99.90;;;10.79;100.00;100503.69;2599074;30;127339;-83
2021/08/18 01:58:40;;;;;;;3.43;1.70;;;12.00;99.90;;;10.78;100.00;100515.41;2650039;30;121809;-83
2021/08/18 02:01:27;;;;;;;2.90;1.70;;;12.00;99.90;;;10.79;100.00;100511.72;2617125;30;119470;31
2021/08/18 02:03:56;;;;;;;3.13;1.60;;;12.90;99.90;;;10.83;100.00;100514.09;2610913;30;130540;-82
2021/08/18 02:06:24;;;;;;;2.47;1.53;;;12.00;99.90;;;10.86;100.00;100520.00;2620955;30;132086;-83
2021/08/18 02:08:53;;;;;;;8.43;1.87;;;12.00;99.90;;;10.88;100.00;100507.28;2635711;30;134943;-79
2021/08/18 02:11:58;;;;;;;4.60;1.50;;;12.10;99.90;;;10.91;100.00;100512.34;2601897;38;126569;-83
2021/08/18 02:15:12;;;;;;;4.07;1.80;;;12.10;99.90;;;10.95;100.00;100500.31;2645038;30;128657;-81
2021/08/18 02:18:01;;;;;;;2.93;1.87;;;12.20;99.90;;;10.98;100.00;100513.41;2656260;30;100620;31
2021/08/18 02:21:18;;;;;;;2.83;1.43;;;12.30;99.90;;;11.07;100.00;100503.59;2424292;38;11983262;-84
2021/08/18 02:24:31;;;;;;;4.77;1.70;;;12.30;99.90;;;11.10;100.00;100498.78;2627542;30;115397;-83
2021/08/18 02:27:44;;;;;;;2.13;1.83;;;12.40;99.90;;;11.14;100.00;100491.25;2625658;30;132011;-82
2021/08/18 02:30:59;;;;;;;1.90;1.23;;;12.40;99.90;;;11.16;100.00;100481.22;2591036;30;132228;-85
2021/08/18 02:34:12;;;;;;;2.87;1.80;;;12.50;99.90;;;11.20;100.00;100479.91;2614847;30;134063;-80
2021/08/18 02:37:29;;;;;;;2.67;1.77;;;12.50;99.90;;;11.16;100.00;100471.34;2633517;30;132949;-84
2021/08/18 02:40:44;;;;;;;4.67;2.17;;;12.60;99.90;;;11.13;100.00;100463.63;2639869;30;134470;-82
2021/08/18 02:43:57;;;;;;;4.13;2.53;;;12.60;99.90;;;11.11;100.00;100470.16;2621703;30;132321;-81
2021/08/18 02:47:11;;;;;;;3.33;1.67;;;12.60;99.90;;;11.06;100.00;100462.59;2616974;30;132205;-86
2021/08/18 02:50:27;;;;;;;3.03;1.67;;;12.60;99.90;;;10.99;100.00;100461.53;2641886;30;133376;-81
2021/08/18 02:53:43;;;;;;;3.90;2.07;;;12.50;99.90;;;10.95;100.00;100467.34;2613784;30;134302;-83
2021/08/18 02:56:56;;;;;;;3.03;1.70;;;12.50;99.90;;;10.97;100.00;100468.03;2634981;30;134738;-85
2021/08/18 03:00:09;;;;;;;3.70;1.90;;;12.40;99.90;;;10.91;100.00;100469.50;2639560;30;133895;-81
2021/08/18 03:03:23;;;;;;;1.97;1.73;;;11.50;99.90;;;10.84;100.00;100470.28;2571572;30;133098;-83
2021/08/18 03:06:36;;;;;;;5.33;2.63;;;12.30;99.90;;;10.78;100.00;100479.75;2586601;38;132601;-82
2021/08/18 03:09:53;;;;;;;4.73;2.87;;;12.30;99.90;;;10.70;100.00;100485.06;2583128;30;133112;-82
2021/08/18 03:13:07;;;;;;;4.43;1.93;;;12.20;99.90;;;10.66;100.00;100497.06;2583281;30;132059;-84
2021/08/18 03:16:20;;;;;;;5.20;2.47;;;12.10;99.90;;;10.63;100.00;100500.88;2632091;30;128050;-84
2021/08/18 03:19:34;;;;;;;2.87;2.13;;;12.10;99.90;;;10.67;100.00;100499.59;2624546;30;128962;-82
2021/08/18 03:22:12;;;;;;;3.27;2.53;;;12.30;99.90;;;10.67;100.00;100506.75;2601610;30;134878;-85
2021/08/18 03:24:43;;;;;;;7.37;2.77;;;12.00;99.90;;;10.64;100.00;100513.25;2615583;30;134199;-85
2021/08/18 03:27:13;;;;;;;4.83;2.27;;;12.00;99.90;;;10.66;100.00;100521.13;2668664;30;130181;-83
2021/08/18 03:29:41;;;;;;;4.03;2.10;;;11.00;99.90;;;10.62;100.00;100517.94;2620221;30;127082;-82
2021/08/18 03:32:11;;;;;;;3.60;2.63;;;11.80;99.90;;;10.55;100.00;100532.91;2623040;30;104697;-85
2021/08/18 03:34:40;;;;;;;3.83;2.93;;;11.90;99.90;;;10.58;100.00;100535.28;2631773;30;102882;-85
2021/08/18 03:37:45;;;;;;;4.10;2.43;;;11.80;99.90;;;10.56;100.00;100549.81;2624777;30;128471;-82
2021/08/18 03:41:01;;;;;;;2.50;2.10;;;11.90;99.90;;;10.58;100.00;100561.22;2646678;30;130386;-83
2021/08/18 03:44:15;;;;;;;4.33;2.33;;;11.90;99.90;;;10.56;100.00;100571.22;2664113;30;128167;-82
2021/08/18 03:47:28;;;;;;;2.87;2.17;;;11.90;99.90;;;10.61;100.00;100583.16;2704673;38;127232;-83
2021/08/18 03:50:41;;;;;;;7.33;3.13;;;11.90;99.90;;;10.65;100.00;100591.72;2643642;30;130994;-81
2021/08/18 03:53:19;;;;;;;3.70;2.93;;;11.90;99.90;;;10.73;100.00;100595.34;2619872;30;129292;-82
2021/08/18 03:55:51;;;;;;;5.47;3.20;;;12.00;99.90;;;10.71;100.00;100607.19;2649367;30;127716;-85
2021/08/18 03:58:20;;;;;;;6.30;3.13;;;12.00;99.90;;;10.76;100.00;100599.50;2640546;30;130895;-85
2021/08/18 04:00:48;;;;;;;6.60;3.20;;;12.00;99.90;;;10.76;100.00;100605.72;2626549;30;105427;-83
2021/08/18 04:03:17;;;;;;;5.23;2.90;;;12.00;99.90;;;10.76;100.00;100604.88;2703006;30;94820;-83
2021/08/18 04:05:46;;;;;;;3.93;2.60;;;12.10;99.90;;;10.84;100.00;100604.13;2649459;30;131073;-83
2021/08/18 04:08:15;;;;;;;4.50;2.27;;;12.10;99.90;;;10.76;100.00;100607.53;2645475;30;125648;-83
2021/08/18 04:10:45;;;;;;;2.60;1.93;;;12.00;99.90;;;10.84;100.00;100609.47;2627950;30;123892;-81
2021/08/18 04:13:16;;;;;;;5.57;2.37;;;12.10;99.90;;;10.77;100.00;100607.41;2616731;30;131561;-83
2021/08/18 04:16:20;;;;;;;4.33;2.67;;;12.10;99.90;;;10.87;100.00;100598.47;2642800;30;68902;-82
2021/08/18 04:19:36;;;;;;;2.40;2.20;;;13.20;99.90;;;10.85;100.00;100597.78;2633702;30;131063;-83
2021/08/18 04:22:49;;;;;;;8.30;2.90;;;11.70;99.90;;;10.92;100.00;100588.97;2664029;30;129316;-83
2021/08/18 04:26:03;;;;;;;2.60;2.07;;;12.20;99.90;;;10.95;100.00;100574.44;2694089;30;131351;-84
2021/08/18 04:29:20;;;;;;;2.70;2.07;;;12.20;99.90;;;10.99;100.00;100567.81;2681983;30;133182;-83
2021/08/18 04:32:33;;;;;;;3.57;2.17;;;12.30;99.90;;;11.04;100.00;100555.63;2655885;30;130956;-86
2021/08/18 04:35:48;;;;;;;7.93;3.03;;;12.30;99.90;;;11.05;100.00;100543.91;2658044;38;129172;-82
2021/08/18 04:39:01;;;;;;;3.70;2.60;;;12.40;99.90;;;11.15;100.00;100541.13;2642708;30;121276;-84
2021/08/18 04:42:15;;;;;;;2.97;1.87;;;12.40;99.90;;;11.16;100.00;100526.75;2653983;30;128127;-85
2021/08/18 04:45:32;;;;;;;4.80;2.60;;;12.50;99.90;;;11.22;100.00;100519.94;2633908;30;88082;-85
2021/08/18 04:48:11;;;;;;;4.83;2.87;;;12.50;99.90;;;11.26;100.00;100503.38;2671882;30;117676;31
2021/08/18 04:51:15;;;;;;;4.20;2.40;;;12.50;99.90;;;11.32;100.00;100493.88;2649226;30;111172;-81
2021/08/18 04:54:28;;;;;;;2.47;1.70;;;12.60;99.90;;;11.39;100.00;100482.38;2628013;30;105119;-82
2021/08/18 04:57:41;;;;;;;4.53;2.80;;;12.60;99.90;;;11.47;100.00;100465.53;2678637;30;117414;-82
2021/08/18 05:00:58;;;;;;;3.80;2.33;;;12.70;99.90;;;11.51;100.00;100456.13;2660683;30;129104;-81
2021/08/18 05:04:11;;;;;;;2.83;2.37;;;12.70;99.90;;;11.59;100.00;100440.13;2648995;30;129214;-82
2021/08/18 05:07:25;;;;;;;4.20;2.30;;;12.80;99.90;;;11.66;100.00;100435.78;2671797;30;87819;-82
2021/08/18 05:10:39;;;;;;;4.77;2.77;;;12.90;99.90;;;11.75;100.00;100428.59;2671371;30;89766;-85
2021/08/18 05:13:52;;;;;;;5.87;2.87;;;13.00;99.90;;;11.79;100.00;100417.44;2680532;30;127174;-85
2021/08/18 05:17:08;;;;;;;5.17;2.57;;;13.00;99.90;;;11.87;100.00;100412.09;2653758;30;132285;-83
2021/08/18 05:20:21;;;;;;;4.50;2.60;;;13.80;99.90;;;11.94;100.00;100401.56;2622503;30;132055;-83
2021/08/18 05:23:34;;;;;;;3.33;2.43;;;13.20;99.90;;;12.03;100.00;100391.69;2720995;30;131743;-85
2021/08/18 05:26:47;;;;;;;4.07;2.10;;;13.30;99.90;;;12.12;100.00;100378.09;2670672;30;131747;-87
2021/08/18 05:30:01;;;;;;;3.00;2.40;;;13.40;99.90;;;12.10;100.00;100371.25;2633540;38;129450;-82
2021/08/18 05:33:17;;;;;;;4.67;1.83;;;14.60;99.90;;;12.12;100.00;100370.06;2615571;30;131654;-83
2021/08/18 05:36:30;;;;;;;2.97;2.27;;;13.60;99.90;;;12.16;100.00;100363.38;2693359;30;130867;-83
2021/08/18 05:39:44;;;;;;;1.60;1.50;;;13.70;99.90;;;12.24;100.00;100362.53;2633359;30;131499;-84
2021/08/18 05:42:57;;;;;;;3.77;2.47;;;13.70;99.90;;;12.29;100.00;100359.34;2653904;30;131990;-83
2021/08/18 05:46:10;;;;;;;3.00;2.33;;;13.80;99.90;;;12.31;100.00;100349.28;2676550;30;131867;-83
2021/08/18 05:49:27;;;;;;;3.07;1.90;;;13.80;99.90;;;12.40;100.00;100353.66;2627931;38;132637;-83
2021/08/18 05:52:40;;;;;;;3.33;1.93;;;15.10;99.90;;;12.49;100.00;100340.03;2655223;38;132386;-83
2021/08/18 05:55:53;;;;;;;2.90;2.00;;;14.00;99.90;;;12.53;100.00;100338.72;2618947;38;132422;-81
2021/08/18 05:59:07;;;;;;;2.07;1.70;;;14.00;99.90;;;12.63;100.00;100335.00;2597314;30;133136;-84
2021/08/18 06:02:20;;;;;;;3.13;2.63;;;14.10;99.90;;;12.68;100.00;100338.88;2663354;38;43926;-82
2021/08/18 06:05:37;;;;;;;3.00;1.93;;;14.20;99.90;;;12.76;100.00;100330.78;2613215;30;131656;-84
2021/08/18 06:08:15;;;;;;;3.13;1.83;;;14.30;99.90;;;12.82;100.00;100327.44;2644151;30;52740;-85
2021/08/18 06:10:43;;;;;;;2.23;1.33;;;14.30;99.90;;;12.88;100.00;100328.56;2656139;38;31059;-82
2021/08/18 06:13:13;;;;;;;3.77;2.07;;;14.40;99.90;;;12.88;100.00;100316.00;2635972;30;87411;-81
2021/08/18 06:15:45;;;;;;;3.57;1.87;;;14.00;99.90;;;12.95;100.00;100326.91;2632933;30;101807;31
2021/08/18 06:18:14;;;;;;;2.07;1.63;;;14.50;99.90;;;13.01;100.00;100326.19;2650269;30;68885;-83
2021/08/18 06:20:45;;;;;;;1.77;1.67;;;14.50;99.90;;;13.04;100.00;100328.53;2645959;30;70283;-82
2021/08/18 06:23:17;;;;;;;1.63;1.47;;;15.50;99.90;;;13.11;100.00;100334.03;2674256;30;28750;-84
2021/08/18 06:25:46;;;;;;;2.03;1.73;;;14.70;99.90;;;13.13;100.00;100329.34;2661497;30;77277;-81
2021/08/18 06:28:50;;;;;;;2.90;2.20;;;14.70;99.90;;;13.27;100.00;100323.28;2642098;38;80824;-84
2021/08/18 06:32:04;;;;;;;2.03;1.73;;;14.40;99.90;;;13.34;100.00;100324.25;2623516;30;132437;-82
2021/08/18 06:35:17;;;;;;;4.57;1.53;;;14.90;99.90;;;13.43;100.00;100314.31;2704415;30;130555;-83
2021/08/18 06:40:46;;;;;;;3.63;2.23;;;15.10;99.90;;;13.62;100.00;100311.16;2611204;30;127856;31
2021/08/18 06:44:03;;;;;;;2.40;1.57;;;15.10;99.90;;;13.70;100.00;100303.06;2691536;30;129042;-82
2021/08/18 06:47:16;;;;;;;1.40;1.30;;;15.30;99.90;;;13.70;100.00;100300.38;2598074;30;133227;-81
2021/08/18 06:50:31;;;;;;;2.05;1.65;;;15.30;99.90;;;13.74;100.00;100296.28;2599574;30;128442;-81
2021/08/18 06:53:44;;;;;;;2.70;1.60;;;15.40;99.90;;;13.82;100.00;100304.31;2648925;30;84559;-83
2021/08/18 06:56:22;;;;;;;3.10;1.90;;;15.50;99.90;;;13.88;100.00;100287.47;2648025;30;96534;-83
2021/08/18 06:58:53;;;;;;;1.77;1.50;;;15.50;99.90;;;13.94;100.00;100283.22;2639794;38;83485;-81
2021/08/18 07:01:22;;;;;;;2.30;1.42;;;15.60;99.90;;;13.92;100.00;100277.19;2608382;30;91851;-84
2021/08/18 07:06:20;;;;;;;1.37;1.27;;;15.70;99.90;;;14.05;100.00;100284.66;2636974;30;116358;-82
2021/08/18 07:08:49;;;;;;;2.28;1.40;;;16.70;99.90;;;14.12;100.00;100274.81;2663873;30;90640;-83
2021/08/18 07:11:19;;;;;;;3.33;1.80;;;15.80;99.90;;;14.13;100.00;100266.56;2629414;30;88187;-81
2021/08/18 07:13:48;;;;;;;3.10;1.63;;;15.80;99.90;;;14.28;100.00;100263.94;2620474;30;96413;-82
2021/08/18 07:16:19;;;;;;;2.15;1.40;;;15.90;99.90;;;14.30;100.00;100265.41;2651632;38;100741;-82
2021/08/18 07:18:48;;;;;;;3.70;1.60;;;16.00;99.90;;;14.47;100.00;100267.97;2632189;30;113927;-83
2021/08/18 07:24:28;;;;;;;5.68;1.50;;;16.10;99.90;;;14.69;100.00;100240.16;2638765;30;124026;-83
2021/08/18 07:27:41;;;;;;;2.35;1.48;;;16.70;99.90;;;14.82;100.00;100245.72;2634698;38;102492;-81
2021/08/18 07:30:55;;;;;;;2.72;1.33;;;16.40;99.90;;;14.95;100.00;100226.22;2644264;38;90799;-81
2021/08/18 07:34:12;;;;;;;1.65;1.00;;;16.80;99.90;;;15.06;100.00;100229.25;2619875;30;117538;-80
2021/08/18 07:37:27;;;;;;;2.92;1.20;;;16.70;99.90;;;15.21;100.00;100233.75;2655688;30;90883;-82
2021/08/18 07:40:41;;;;;;;2.35;1.33;;;17.00;99.90;;;15.49;100.00;100236.56;2627034;38;84375;-83
2021/08/18 07:43:54;;;;;;;1.98;1.35;;;16.10;99.90;;;15.58;100.00;100225.50;2623719;30;126303;-85
2021/08/18 07:47:07;;;;;;;4.28;1.92;;;17.30;99.90;;;15.71;100.00;100230.19;2705015;30;75576;-82
2021/08/18 07:50:24;;;;;;;3.28;1.75;;;17.40;99.90;;;15.78;100.00;100218.44;2598227;30;115195;-84
2021/08/18 07:53:41;;;;;;;1.45;1.25;;;17.60;99.90;;;15.96;100.00;100211.72;2629926;30;122719;-82
2021/08/18 07:56:54;;;;;;;2.78;1.30;;;17.80;99.90;;;15.61;100.00;100211.63;2602414;30;131216;-83
2021/08/18 08:00:07;;;;;;;1.42;1.17;;;18.10;99.90;;;16.01;100.00;100202.03;2638939;30;104637;-82
2021/08/18 08:03:38;;;;;;;2.40;1.25;;;18.00;99.90;;;16.01;100.00;100206.59;2638991;30;96402;-81
2021/08/18 08:06:54;;;;;;;0.95;0.80;;;17.90;99.90;;;16.01;100.00;100201.19;2619740;30;109169;-84
2021/08/18 08:10:08;;;;;;;1.85;1.17;;;17.70;99.90;;;15.99;100.00;100200.56;2648135;38;108899;-83
2021/08/18 08:12:46;;;;;;;1.38;0.80;;;18.10;99.90;;;15.96;100.00;100211.72;2629741;38;80797;-81
2021/08/18 08:15:15;;;;;;;1.70;1.27;;;18.40;99.90;;;16.15;100.00;100208.38;2624020;30;71244;-81
2021/08/18 08:17:45;;;;;;;1.85;1.45;;;18.40;99.90;;;16.12;100.00;100201.50;2625353;30;73294;-82
2021/08/18 08:20:15;;;;;;;1.85;0.90;;;18.50;99.90;;;16.13;100.00;100199.63;2644083;30;51040;-84
2021/08/18 08:22:46;;;;;;;2.78;1.02;;;18.60;99.90;;;16.36;100.00;100197.50;2634445;30;86359;-82
2021/08/18 08:25:15;;;;;;;1.25;0.93;;;18.60;99.90;;;16.19;100.00;100203.41;2643092;30;92662;-85
2021/08/18 08:27:44;;;;;;;2.22;1.35;;;19.70;99.90;;;16.20;100.00;100200.50;2638514;30;34945;-84
2021/08/18 08:30:14;;;;;;;2.15;0.98;;;18.70;99.90;;;16.20;100.00;100202.38;2629898;30;41303;-82
2021/08/18 08:32:44;;;;;;;1.17;0.95;;;18.70;99.90;;;16.32;100.00;100196.22;2632940;30;34365;-83
2021/08/18 08:35:14;;;;;;;1.70;1.10;;;18.70;99.90;;;16.29;100.00;100198.50;2641147;30;32696;-87
2021/08/18 08:37:46;;;;;;;1.80;1.30;;;18.80;99.90;;;16.16;100.00;100199.25;2670954;30;51084;-85
2021/08/18 08:40:16;;;;;;;1.63;1.50;;;18.70;99.40;;;16.04;100.00;100204.34;2638305;30;93908;-83
2021/08/18 08:42:45;;;;;;;2.47;1.25;;;18.70;99.50;;;15.95;100.00;100200.09;2633783;30;68668;-83
2021/08/18 08:45:15;;;;;;;2.75;1.60;;;19.50;99.80;;;15.97;100.00;100214.22;2643434;30;108640;-83
2021/08/18 08:47:44;;;;;;;1.77;0.98;;;18.80;99.60;;;16.02;100.00;100216.34;2638900;30;69969;-82
2021/08/18 08:50:16;;;;;;;2.03;1.08;;;18.40;99.90;;;15.84;100.00;100224.06;2625065;30;115189;-80
2021/08/18 08:52:48;;;;;;;1.20;0.98;;;18.30;99.90;;;15.49;100.00;100231.16;2613589;31;92841;-82
2021/08/18 08:55:17;;;;;;;1.93;1.00;;;18.20;99.90;;;15.17;100.00;100248.66;2644320;38;130339;-85
2021/08/18 08:57:52;;;;;;;1.23;1.13;;;18.80;99.90;;;14.90;100.00;100283.34;2635612;30;93867;-84
2021/08/18 09:00:22;;;;;;;1.27;1.17;;;17.60;99.90;;;14.54;100.00;100303.94;2660049;30;63193;-83
2021/08/18 09:03:09;;;;;;;2.08;1.40;;;17.20;99.90;;;14.33;100.00;100343.13;2623501;30;108968;-82
2021/08/18 09:05:38;;;;;;;1.92;1.40;;;16.80;99.90;;;14.16;100.00;100351.50;2622048;38;20311;-81
2021/08/18 09:08:15;;;;;;;2.53;1.40;;;16.50;99.90;;;14.19;100.00;100378.06;2620078;30;91665;-84
2021/08/18 09:10:50;;;;;;;3.08;1.27;;;16.30;99.90;;;14.28;100.00;100399.34;2615734;30;107192;-83
2021/08/18 09:13:20;;;;;;;2.45;1.15;;;16.20;99.90;;;14.38;100.00;100413.38;2594468;30;128231;-83
2021/08/18 09:16:06;;;;;;;1.10;1.00;;;16.10;99.90;;;14.39;100.00;100419.59;2582706;30;124607;-84
2021/08/18 09:18:45;;;;;;;1.75;1.00;;;16.10;99.90;;;14.68;100.00;100414.38;2630063;38;98474;-83
2021/08/18 09:21:30;;;;;;;0.95;0.65;;;16.20;99.90;;;14.90;100.00;100423.44;2630897;30;104066;-83
2021/08/18 09:24:29;;;;;;;1.95;0.90;;;16.20;99.90;;;14.91;100.00;100403.56;2613590;30;113618;-82
2021/08/18 09:27:06;;;;;;;1.27;0.85;;;16.30;99.90;;;14.93;100.00;100409.59;2602619;30;115554;-83
2021/08/18 09:29:41;;;;;;;1.55;1.20;;;16.40;99.90;;;15.05;100.00;100396.50;2647870;30;80658;-81
2021/08/18 09:33:04;;;;;;;0.95;0.68;;;17.50;99.90;;;15.36;100.00;100383.69;2650803;30;61059;-80
2021/08/18 09:36:33;;;;;;;2.33;1.03;;;16.60;99.90;;;15.76;100.00;100352.69;2623281;30;120422;-83
2021/08/18 09:40:07;;;;;;;0.80;0.73;;;16.80;99.90;;;16.61;100.00;100324.84;2613709;30;70147;-83
2021/08/18 09:43:37;;;;;;;0.70;0.70;;;17.30;99.90;;;16.91;100.00;100286.81;2632846;30;36009;-85
2021/08/18 09:46:57;;;;;;;1.13;0.90;;;17.80;99.90;;;17.15;100.00;100254.72;2653435;38;26721;-84
2021/08/18 09:50:10;;;;;;;1.98;0.95;;;18.40;99.90;;;16.72;100.00;100229.75;2652278;30;115484;-83
2021/08/18 09:53:31;;;;;;;1.58;1.02;;;18.80;99.90;;;17.29;100.00;100225.03;2618432;30;80721;-81
2021/08/18 09:57:00;;;;;;;1.27;0.80;;;19.10;99.90;;;17.57;100.00;100213.03;2618598;38;96138;-83
2021/08/18 10:00:13;;;;;;;0.95;0.68;;;19.40;99.90;;;17.19;100.00;100204.59;2611635;30;129168;-81
2021/08/18 10:03:27;;;;;;;0.60;0.60;;;19.80;99.90;;;17.18;100.00;100196.72;2592741;31;119638;-81
2021/08/18 10:06:41;;;;;;;0.77;0.77;;;19.80;99.90;;;16.95;100.00;100212.41;2584883;30;123113;-83
2021/08/18 10:09:55;;;;;;;1.90;1.05;;;19.90;99.90;;;16.59;100.00;100208.03;2603396;30;131532;-84
2021/08/18 10:13:12;;;;;;;0.85;0.85;;;19.90;99.90;;;16.76;100.00;100217.53;2611397;30;131301;-81
2021/08/18 10:16:27;;;;;;;1.63;1.30;;;19.70;99.90;;;16.58;100.00;100206.38;2608065;30;131143;-81
2021/08/18 10:19:43;;;;;;;1.63;1.05;;;19.80;99.90;;;16.61;100.00;100210.53;2610386;38;127436;-82
2021/08/18 10:22:56;;;;;;;3.08;1.42;;;19.40;99.90;;;17.05;100.00;100188.56;2635321;30;131026;-82
2021/08/18 10:26:41;;;;;;;1.15;0.70;;;19.40;99.90;;;17.21;100.00;100183.59;2646105;30;123716;-86
2021/08/18 10:30:22;;;;;;;1.33;0.98;;;19.50;99.90;;;17.84;100.00;100167.06;2629981;30;93383;-83
2021/08/18 10:33:48;;;;;;;1.33;0.93;;;19.80;99.90;;;17.83;100.00;100152.72;2634160;31;124397;-83
2021/08/18 10:37:43;;;;;;;1.80;1.45;;;20.10;99.90;;;17.94;100.00;100143.13;2661463;30;109368;-83
2021/08/18 10:41:03;;;;;;;2.10;1.63;;;20.20;99.80;;;17.96;100.00;100141.03;2590290;30;129394;-83
2021/08/18 10:44:42;;;;;;;1.58;1.20;;;20.40;98.40;;;18.06;100.00;100129.78;2630594;30;121418;-82
2021/08/18 10:48:03;;;;;;;0.90;0.70;;;20.60;97.50;;;17.92;100.00;100135.25;2579195;30;125328;-85
2021/08/18 10:51:17;;;;;;;0.95;0.73;;;21.40;96.20;;;18.83;100.00;100127.09;2634425;30;128837;-82
2021/08/18 10:55:05;;;;;;;0.65;0.60;;;20.80;96.50;;;18.34;100.00;100119.53;2619159;30;131221;-86
2021/08/18 10:58:37;;;;;;;1.10;0.77;;;21.20;94.10;;;18.26;100.00;100115.19;2645397;30;119828;-82
2021/08/18 11:02:19;;;;;;;0.60;0.57;;;21.30;93.40;;;18.69;100.00;100101.09;2637553;30;119575;-82
2021/08/18 11:05:51;;;;;;;2.17;0.70;;;21.40;93.20;;;18.89;100.00;100103.72;2641743;30;106812;-84
2021/08/18 11:09:07;;;;;;;1.05;0.95;;;21.70;92.40;;;18.59;100.00;100096.13;2652580;30;114857;-86
2021/08/18 11:12:21;;;;;;;1.00;0.82;;;21.70;90.90;;;18.52;100.00;100089.88;2665160;30;105140;-83
2021/08/18 11:16:15;;;;;;;0.63;0.63;;;21.60;90.50;;;18.76;100.00;100095.66;2615572;30;55192;-82
2021/08/18 11:19:31;;;;;;;0.68;0.68;;;21.50;91.10;;;18.36;100.00;100082.22;2649307;30;69974;-85
2021/08/18 11:22:49;;;;;;;1.15;0.88;;;21.50;91.00;;;18.46;100.00;100085.31;2626223;30;56680;-81
2021/08/18 11:26:12;;;;;;;0.73;0.70;;;21.40;90.70;;;18.47;100.00;100086.16;2632623;30;20267;-81
2021/08/18 11:29:41;;;;;;;3.83;0.60;;;21.30;89.60;;;18.56;100.00;100074.00;2636169;30;20268;-85
2021/08/18 11:32:55;;;;;;;0.95;0.75;;;21.20;88.70;;;18.96;100.00;100078.22;2654844;38;20571;-83
2021/08/18 11:36:24;;;;;;;1.83;0.50;;;21.50;90.40;;;18.71;100.00;100057.50;2667593;38;27370;-86
2021/08/18 11:39:41;;;;;;;1.10;0.52;;;21.40;89.30;;;18.45;100.00;100063.84;2634526;30;74375;-83
2021/08/18 11:43:01;;;;;;;0.25;0.25;;;21.30;88.00;;;18.78;100.00;100075.41;2636355;30;60510;-82
2021/08/18 11:45:41;;;;;;;0.30;0.25;;;21.20;89.00;;;18.54;100.00;100074.25;2651037;30;36367;-82
2021/08/18 11:48:12;;;;;;;0.50;0.30;;;21.20;88.00;;;18.54;100.00;100073.41;2612412;31;46705;-82
2021/08/18 11:50:53;;;;;;;0.75;0.63;;;21.10;88.70;;;18.53;100.00;100066.34;2624544;30;35055;-85
2021/08/18 11:53:22;;;;;;;0.30;0.30;;;21.10;89.20;;;18.45;100.00;100074.69;2645916;30;84921;-83
2021/08/18 11:56:05;;;;;;;0.80;0.63;;;21.00;89.50;;;18.36;100.00;100070.56;2635914;30;25985;-82
2021/08/18 11:58:37;;;;;;;0.55;0.32;;;21.40;90.00;;;18.13;100.00;100066.47;2629760;30;20229;-84
2021/08/18 12:01:11;;;;;;;1.30;0.68;;;20.60;89.50;;;18.00;100.00;100071.06;2672216;30;23171;-84
2021/08/18 12:03:40;;;;;;;0.70;0.50;;;20.80;90.20;;;18.01;100.00;100070.88;2650287;30;73793;-82
2021/08/18 12:06:09;;;;;;;0.50;0.50;;;21.00;90.70;;;18.03;100.00;100076.09;2641130;30;39962;-83
2021/08/18 12:08:43;;;;;;;0.70;0.55;;;20.40;90.90;;;18.14;100.00;100078.13;2627680;30;20945;-83
2021/08/18 12:11:15;;;;;;;0.50;0.45;;;21.00;91.50;;;18.15;100.00;100082.50;2631393;30;25861;-82
2021/08/18 12:13:48;;;;;;;0.82;0.52;;;20.50;91.80;;;18.20;100.00;100082.69;2619229;38;32821;-84
2021/08/18 12:16:32;;;;;;;0.40;0.40;;;21.20;92.30;;;18.20;100.00;100078.09;2620540;30;39373;-82
2021/08/18 12:19:24;;;;;;;0.95;0.50;;;20.40;92.20;;;18.17;100.00;100073.13;2622057;38;23496;-81
2021/08/18 12:22:16;;;;;;;0.70;0.70;;;20.40;92.10;;;18.08;100.00;100079.81;2624575;30;37613;-82